Eira — OJJP — position and weather

sailwx.info

Track history (hours):
 
Tides and Currents Weather Stations Pressure Air Temp Water Temp Dewpoint Dewpoint Depression Visibility Wind Speed Wind Dir Waves Ship Positions

Eira

Last reported at 2014-Jul-21 20:33 UTC. Time now 2014-Jul-22 15:28 UTC.
Position N 59°32' E 021°44'.

Length 157 m; draft 9.3 m.

Type: Cargo ship. MMSI: 230935000.

Date/timePositionNaut miles runAvg speedWind from/ knotsBaromVisibWave heightAir tempDewpointWater temp
2014-Jul-21 20:33N 59°32' E 021°44'310.9
2014-Jul-21 20:18N 59°32' E 021°49'811.1
2014-Jul-21 19:33N 59°33' E 022°05'1111.0
2014-Jul-21 18:33N 59°35' E 022°27'1110.7
2014-Jul-21 17:33N 59°37' E 022°47'1111.0
2014-Jul-21 16:33N 59°39' E 023°09'1110.9
2014-Jul-21 15:33N 59°41' E 023°30'1110.7
2014-Jul-21 14:33N 59°44' E 023°51'1110.6
2014-Jul-21 13:32N 59°46' E 024°12'1110.7
2014-Jul-21 12:33N 59°48' E 024°32'1110.6
2014-Jul-21 11:33N 59°50' E 024°53'1210.9
2014-Jul-21 10:29N 59°52' E 025°16'1011.2
2014-Jul-21 09:33N 59°55' E 025°36'1310.8
2014-Jul-21 08:23N 59°57' E 026°01'1910.6
2014-Jul-21 06:33N 60°01' E 026°39'57 2.3
2014-Jul-20 06:16N 59°41' E 028°25'36 2.0
2014-Jul-19 12:04N 60°08' E 027°36'913.0
2014-Jul-19 11:24N 60°03' E 027°21'1112.9
2014-Jul-19 10:33N 59°58' E 027°01'1313.2
2014-Jul-19 09:33N 59°59' E 026°35'1313.2
2014-Jul-19 08:33N 59°55' E 026°10'1313.0
2014-Jul-19 07:33N 59°52' E 025°45'1312.8
2014-Jul-19 06:33N 59°49' E 025°20'1413.1
2014-Jul-19 05:30N 59°45' E 024°54'1212.9
2014-Jul-19 04:33N 59°44' E 024°29'1312.9
2014-Jul-19 03:33N 59°42' E 024°04'1313.2
2014-Jul-19 02:33N 59°41' E 023°38'1313.1
2014-Jul-19 01:33N 59°39' E 023°13'1313.0
2014-Jul-19 00:33N 59°37' E 022°47'1412.9
2014-Jul-18 23:28N 59°35' E 022°20'18 0.4
2014-Jul-17 04:12N 59°38' E 022°55'912.7
2014-Jul-17 03:30N 59°39' E 023°12'1212.7
2014-Jul-17 02:34N 59°42' E 023°35'1312.5
2014-Jul-17 01:30N 59°45' E 024°01'5112.5
2014-Jul-16 21:27N 59°55' E 025°40'2512.2
2014-Jul-16 19:25N 60°01' E 026°28'1112.2
2014-Jul-16 18:30N 60°00' E 026°50'14 0.3
2014-Jul-14 19:15N 60°02' E 027°18'1111.9
2014-Jul-14 18:21N 59°58' E 026°59'1012.5
2014-Jul-14 17:33N 59°60' E 026°39'8 8.0
2014-Jul-14 16:33N 60°05' E 026°28'4 3.7
2014-Jul-14 15:33N 60°09' E 026°30'0 0.0
2014-Jul-14 14:33N 60°09' E 026°30'0 0.0
2014-Jul-14 13:27N 60°09' E 026°30'0 0.0
2014-Jul-14 12:33N 60°09' E 026°30'0 0.0
2014-Jul-14 11:33N 60°09' E 026°30'0 0.1
2014-Jul-14 10:21N 60°09' E 026°30'0 0.0
2014-Jul-14 09:15N 60°09' E 026°30'0 0.0
2014-Jul-14 08:33N 60°09' E 026°30'0 0.0
2014-Jul-14 07:24N 60°09' E 026°30'0 0.0
2014-Jul-14 06:27N 60°09' E 026°30'0 0.0
2014-Jul-14 05:18N 60°09' E 026°30'0 0.0
2014-Jul-14 04:18N 60°09' E 026°30'0 0.0
2014-Jul-14 03:33N 60°09' E 026°30'0 0.0
2014-Jul-14 02:33N 60°09' E 026°30'0 0.0
2014-Jul-14 01:33N 60°09' E 026°30'0 0.1
2014-Jul-14 00:30N 60°09' E 026°30'0 0.0
2014-Jul-13 23:33N 60°09' E 026°30'0 0.1
2014-Jul-13 22:12N 60°09' E 026°30'0 0.0
2014-Jul-13 20:33N 60°09' E 026°30'0 0.0
2014-Jul-13 19:30N 60°09' E 026°30'0 0.0
2014-Jul-13 18:30N 60°09' E 026°30'0 0.0
2014-Jul-13 17:27N 60°09' E 026°30'0 0.0
2014-Jul-13 16:33N 60°09' E 026°30'0 0.0
2014-Jul-13 15:33N 60°09' E 026°30'0 0.0
2014-Jul-13 14:33N 60°09' E 026°30'0 0.0
2014-Jul-13 13:33N 60°09' E 026°30'0 0.0
2014-Jul-13 12:33N 60°09' E 026°30'0 0.0
2014-Jul-13 11:33N 60°09' E 026°30'0 0.0
2014-Jul-13 10:33N 60°09' E 026°30'0 0.0
2014-Jul-13 09:33N 60°09' E 026°30'0 0.0
2014-Jul-13 08:33N 60°09' E 026°30'0 0.0
2014-Jul-13 07:33N 60°09' E 026°30'0 0.0
2014-Jul-13 06:34N 60°09' E 026°30'3 3.4
2014-Jul-13 05:34N 60°07' E 026°35'1211.7
2014-Jul-13 04:31N 60°00' E 026°55'1110.8
2014-Jul-13 03:31N 60°03' E 027°16'88 6.2
2014-Jul-12 13:12N 59°53' E 030°11'0 0.0
2014-Jul-12 12:33N 59°53' E 030°11'0 0.0
2014-Jul-12 11:33N 59°53' E 030°11'0 0.0
2014-Jul-12 10:30N 59°53' E 030°11'0 0.0
2014-Jul-12 09:33N 59°53' E 030°11'0 0.0
2014-Jul-12 06:27N 59°53' E 030°11'0 0.0
2014-Jul-12 05:33N 59°53' E 030°11'0 0.0
2014-Jul-12 04:33N 59°53' E 030°11'0 0.0
2014-Jul-12 03:33N 59°53' E 030°11'0 0.1
2014-Jul-12 02:33N 59°53' E 030°11'  
Track history (hours):
 
Tides and Currents Weather Stations Pressure Air Temp Water Temp Dewpoint Dewpoint Depression Visibility Wind Speed Wind Dir Waves Ship Positions

Eira

Last reported at 2014-Jul-21 20:33 UTC. Time now 2014-Jul-22 15:28 UTC.
Position N 59°32' E 021°44'.

Length 157 m; draft 9.3 m.

Type: Cargo ship. MMSI: 230935000.

Date/timePositionNaut miles runAvg speedWind from/ knotsBaromVisibWave heightAir tempDewpointWater temp
2014-Jul-21 20:33N 59°32' E 021°44'310.9
2014-Jul-21 20:18N 59°32' E 021°49'811.1
2014-Jul-21 19:33N 59°33' E 022°05'1111.0
2014-Jul-21 18:33N 59°35' E 022°27'1110.7
2014-Jul-21 17:33N 59°37' E 022°47'1111.0
2014-Jul-21 16:33N 59°39' E 023°09'1110.9
2014-Jul-21 15:33N 59°41' E 023°30'1110.7
2014-Jul-21 14:33N 59°44' E 023°51'1110.6
2014-Jul-21 13:32N 59°46' E 024°12'1110.7
2014-Jul-21 12:33N 59°48' E 024°32'1110.6
2014-Jul-21 11:33N 59°50' E 024°53'1210.9
2014-Jul-21 10:29N 59°52' E 025°16'1011.2
2014-Jul-21 09:33N 59°55' E 025°36'1310.8
2014-Jul-21 08:23N 59°57' E 026°01'1910.6
2014-Jul-21 06:33N 60°01' E 026°39'57 2.3
2014-Jul-20 06:16N 59°41' E 028°25'36 2.0
2014-Jul-19 12:04N 60°08' E 027°36'913.0
2014-Jul-19 11:24N 60°03' E 027°21'1112.9
2014-Jul-19 10:33N 59°58' E 027°01'1313.2
2014-Jul-19 09:33N 59°59' E 026°35'1313.2
2014-Jul-19 08:33N 59°55' E 026°10'1313.0
2014-Jul-19 07:33N 59°52' E 025°45'1312.8
2014-Jul-19 06:33N 59°49' E 025°20'1413.1
2014-Jul-19 05:30N 59°45' E 024°54'1212.9
2014-Jul-19 04:33N 59°44' E 024°29'1312.9
2014-Jul-19 03:33N 59°42' E 024°04'1313.2
2014-Jul-19 02:33N 59°41' E 023°38'1313.1
2014-Jul-19 01:33N 59°39' E 023°13'1313.0
2014-Jul-19 00:33N 59°37' E 022°47'1412.9
2014-Jul-18 23:28N 59°35' E 022°20'18 0.4
2014-Jul-17 04:12N 59°38' E 022°55'912.7
2014-Jul-17 03:30N 59°39' E 023°12'1212.7
2014-Jul-17 02:34N 59°42' E 023°35'1312.5
2014-Jul-17 01:30N 59°45' E 024°01'5112.5
2014-Jul-16 21:27N 59°55' E 025°40'2512.2
2014-Jul-16 19:25N 60°01' E 026°28'1112.2
2014-Jul-16 18:30N 60°00' E 026°50'14 0.3
2014-Jul-14 19:15N 60°02' E 027°18'1111.9
2014-Jul-14 18:21N 59°58' E 026°59'1012.5
2014-Jul-14 17:33N 59°60' E 026°39'8 8.0
2014-Jul-14 16:33N 60°05' E 026°28'4 3.7
2014-Jul-14 15:33N 60°09' E 026°30'0 0.0
2014-Jul-14 14:33N 60°09' E 026°30'0 0.0
2014-Jul-14 13:27N 60°09' E 026°30'0 0.0
2014-Jul-14 12:33N 60°09' E 026°30'0 0.0
2014-Jul-14 11:33N 60°09' E 026°30'0 0.1
2014-Jul-14 10:21N 60°09' E 026°30'0 0.0
2014-Jul-14 09:15N 60°09' E 026°30'0 0.0
2014-Jul-14 08:33N 60°09' E 026°30'0 0.0
2014-Jul-14 07:24N 60°09' E 026°30'0 0.0
2014-Jul-14 06:27N 60°09' E 026°30'0 0.0
2014-Jul-14 05:18N 60°09' E 026°30'0 0.0
2014-Jul-14 04:18N 60°09' E 026°30'0 0.0
2014-Jul-14 03:33N 60°09' E 026°30'0 0.0
2014-Jul-14 02:33N 60°09' E 026°30'0 0.0
2014-Jul-14 01:33N 60°09' E 026°30'0 0.1
2014-Jul-14 00:30N 60°09' E 026°30'0 0.0
2014-Jul-13 23:33N 60°09' E 026°30'0 0.1
2014-Jul-13 22:12N 60°09' E 026°30'0 0.0
2014-Jul-13 20:33N 60°09' E 026°30'0 0.0
2014-Jul-13 19:30N 60°09' E 026°30'0 0.0
2014-Jul-13 18:30N 60°09' E 026°30'0 0.0
2014-Jul-13 17:27N 60°09' E 026°30'0 0.0
2014-Jul-13 16:33N 60°09' E 026°30'0 0.0
2014-Jul-13 15:33N 60°09' E 026°30'0 0.0
2014-Jul-13 14:33N 60°09' E 026°30'0 0.0
2014-Jul-13 13:33N 60°09' E 026°30'0 0.0
2014-Jul-13 12:33N 60°09' E 026°30'0 0.0
2014-Jul-13 11:33N 60°09' E 026°30'0 0.0
2014-Jul-13 10:33N 60°09' E 026°30'0 0.0
2014-Jul-13 09:33N 60°09' E 026°30'0 0.0
2014-Jul-13 08:33N 60°09' E 026°30'0 0.0
2014-Jul-13 07:33N 60°09' E 026°30'0 0.0
2014-Jul-13 06:34N 60°09' E 026°30'3 3.4
2014-Jul-13 05:34N 60°07' E 026°35'1211.7
2014-Jul-13 04:31N 60°00' E 026°55'1110.8
2014-Jul-13 03:31N 60°03' E 027°16'88 6.2
2014-Jul-12 13:12N 59°53' E 030°11'0 0.0
2014-Jul-12 12:33N 59°53' E 030°11'0 0.0
2014-Jul-12 11:33N 59°53' E 030°11'0 0.0
2014-Jul-12 10:30N 59°53' E 030°11'0 0.0
2014-Jul-12 09:33N 59°53' E 030°11'0 0.0
2014-Jul-12 06:27N 59°53' E 030°11'0 0.0
2014-Jul-12 05:33N 59°53' E 030°11'0 0.0
2014-Jul-12 04:33N 59°53' E 030°11'0 0.0
2014-Jul-12 03:33N 59°53' E 030°11'0 0.1
2014-Jul-12 02:33N 59°53' E 030°11'  

Dump ship's entire track history